CDT,Max TemperatureF,Mean TemperatureF,Min TemperatureF,Max Dew PointF,MeanDew PointF,Min DewpointF,Max Humidity, Mean Humidity, Min Humidity, Max Sea Level PressureIn, Mean Sea Level PressureIn, Min Sea Level PressureIn, Max VisibilityMiles, Mean VisibilityMiles, Min VisibilityMiles, Max Wind SpeedMPH, Mean Wind SpeedMPH, Max Gust SpeedMPH,PrecipitationIn, CloudCover, Events, WindDirDegrees
2012-9-1,97,76,54,54,44,34,80,35,11,30.08,30.03,29.94,10,10,10,20,9,31,0.00,0,,176
2012-9-2,90,79,68,57,49,42,60,37,20,30.00,29.97,29.96,10,10,10,17,11,24,0.00,0,,245
2012-9-3,95,80,64,59,51,32,70,43,11,30.01,29.96,29.88,10,10,10,14,3,20,0.00,1,Rain,173
2012-9-4,100,74,49,55,37,21,81,34,8,29.96,29.90,29.80,10,10,10,22,5,31,0.00,0,,261
2012-9-5,79,68,57,39,32,26,48,29,15,30.11,30.01,29.89,10,10,10,17,9,25,0.00,0,,358
2012-9-6,92,73,55,44,37,28,48,30,10,30.02,29.93,29.85,10,10,10,23,12,33,0.00,0,,226
2012-9-7,73,60,48,53,44,35,88,55,28,30.27,30.17,30.01,10,10,5,21,12,30,0.19,3,Rain,347
2012-9-8,83,61,39,44,35,28,88,46,14,30.28,30.22,30.13,10,10,10,21,7,26,0.00,0,,303
2012-9-9,83,61,39,43,36,31,88,44,15,30.29,30.19,30.04,10,10,10,16,5,24,0.00,0,,170
2012-9-10,98,76,55,43,37,27,63,30,10,30.04,29.90,29.78,10,10,10,25,16,34,0.00,0,,191
2012-9-11,91,76,61,46,40,32,55,29,18,30.01,29.85,29.80,10,10,7,18,12,26,0.00,0,,297
2012-9-12,66,56,44,50,43,32,91,67,27,30.37,30.22,30.01,10,10,5,20,12,26,0.16,4,Rain,43
2012-9-13,75,56,37,46,36,28,95,57,18,30.46,30.39,30.33,10,10,4,14,5,23,0.00,0,,236
2012-9-14,81,60,41,41,34,26,83,39,14,30.40,30.33,30.24,10,10,10,13,5,,0.00,0,,247
2012-9-15,86,68,51,37,34,28,55,32,12,30.24,30.14,30.03,10,10,10,18,13,25,0.00,0,,198
2012-9-16,88,68,48,42,34,27,75,34,11,30.07,29.97,29.84,10,10,10,29,12,43,0.00,0,,214
2012-9-17,67,56,43,42,36,30,83,51,26,30.17,30.12,30.00,10,10,10,22,13,29,0.00,1,,2
2012-9-18,82,59,36,35,32,30,85,43,15,30.16,30.02,29.91,10,10,10,16,3,23,0.00,2,,281
2012-9-19,77,60,43,36,30,23,69,36,15,30.11,30.00,29.90,10,10,10,25,7,34,0.00,0,,311
2012-9-20,81,58,36,32,28,25,68,42,15,30.12,30.04,29.95,10,10,10,16,3,22,0.00,0,,293
2012-9-21,77,61,45,34,32,31,60,36,19,30.13,30.03,29.99,10,10,10,23,10,32,0.00,0,,314
2012-9-22,70,52,35,32,29,26,79,43,21,30.32,30.25,30.14,10,10,10,12,4,,0.00,0,,73
2012-9-23,75,54,34,29,27,25,76,40,16,30.26,30.20,30.13,10,10,10,20,7,25,0.00,0,,154
2012-9-24,68,58,47,47,38,27,83,48,33,30.14,30.00,29.90,10,10,10,12,6,17,0.00,1,Rain,185
2012-9-25,77,58,40,43,36,28,88,51,18,29.99,29.94,29.91,10,10,10,10,3,,0.00,1,,304
2012-9-26,79,56,34,37,32,29,84,44,16,30.18,30.10,29.99,10,10,10,9,2,,0.00,0,,131
2012-9-27,77,58,39,48,36,30,83,50,18,30.23,30.19,30.14,10,10,10,10,2,,0.00,0,,162
2012-9-28,78,59,41,47,37,32,75,46,22,30.22,30.17,30.11,10,10,7,8,1,,0.00,2,,184
2012-9-29,78,58,39,49,36,31,82,43,19,30.17,30.11,30.04,10,10,10,17,6,24,0.00,0,,187
2012-9-30,82,64,46,50,44,38,89,52,20,30.07,30.01,29.96,10,10,10,20,6,31,0.00,1,Thunderstorm,8